Etusivu
METAR-TAF:

METAR-TAF

Lentoasemat :

Biloxi, Mississippi, Yhdysvallat

Leveyspiiri: 30-25N, Pituuspiiri: 088-55W, korkeus merenpinnasta: 10 m

Tämänhetkinen sää

Tämä raportti tehtiin 13 minuuttia sitten, kello 13.55 UTC
tyyntä
Lämpötila 29°C
Kosteus 74%
Ilmanpaine 1016 hPa
Näkyvyys: 16.1 km
Muutamia pilviä 1600 ft:n korkeudessa

METAR: KBIX 231355Z AUTO 00000KT 10SM FEW016 29/24 A2999 RMK AO2 SLP158 T02860241

Aika: 09:08 (14:08 UTC)

Sääennuste

Tämä raportti tehtiin 20 tuntia ja 8 minuuttia sitten, kello 18.00 UTC
Ennuste voimassa 22. päivästä klo 13 UTC - 23. päivään klo 19 UTC
Tuuli 6 kn eri suunnista
Näkyvyys: 2410 m
selkeää

TAF: KBIX 221800Z 2213/2319 VRB06KT 9999 SKC QNH2995INS TX35/2317Z TN25/2308Z LAST NO AMDS AFT 2213 NEXT 2410

Säähavainnot ja -ennusteet yli 4000 lentoasemalta (METAR- ja TAF-raportit).

Käytössä olevat sääasemat on merkitty karttaan keltaisilla ja punaisilla pisteillä.

Aseta hiiri pisteen päälle nähdäksesi sääaseman nimen.

Klikkaa sitten nähdäksesi säähavainnot ja -ennusteet.

Kartan vaihtaminen: klikkaa mustalla rastilla varustettuja vihreitä pisteitä, niin voit zoomata sisään; viivalla varustettua vihreää pistettä, niin voit zoomata ulos tai vihreitä nuolia, niin pääset viereisille kartoille.


METAR-TAF: